Monolith, California
Current Conditions -  °F | °C
As of 2:15 PM on Friday 24 Oct 2014 (Local Time) from KTSP Reporting Station
Clear Clear  
Wind Chill: 81°   Ceiling: Unl
Heat Index: 81°   Visibility: 10mi
Dew Point: 14°   Wind: 18mph
Humidity: 8%   Direction: 140°SE
Pressure: 30.07"   Gusts: 29mph
Location:  35.1338°N, 118.552°W
Report Text: KTSP 242115Z AUTO 14016G25KT 10SM CLR 27/M10 A3007 RMK AO2
Loading
Personal Weather Stations






























Interactive Weather Map
Tropical Storm Tracking
New forecast layout! Learn more

10-Day Weather Forecast

Advertisements
Track Severe Weather on mobile